createdAt,value
2018-08-28T00:02:29.974Z,14.00
2018-08-28T00:04:58.915Z,14.00
2018-08-28T00:07:27.120Z,13.90
2018-08-28T00:09:55.295Z,13.90
2018-08-28T00:12:23.491Z,13.90
2018-08-28T00:14:51.662Z,13.90
2018-08-28T00:17:20.275Z,13.90
2018-08-28T00:19:48.544Z,13.90
2018-08-28T00:22:16.743Z,13.80
2018-08-28T00:24:45.443Z,13.90
2018-08-28T00:27:13.624Z,13.80
2018-08-28T00:29:41.795Z,13.80
2018-08-28T00:32:09.957Z,13.80
2018-08-28T00:34:38.155Z,13.70
2018-08-28T00:37:08.452Z,13.60
2018-08-28T00:39:36.688Z,13.60
2018-08-28T00:42:04.883Z,13.60
2018-08-28T00:44:33.068Z,13.50
2018-08-28T00:47:01.260Z,13.50
2018-08-28T00:49:29.443Z,13.40
2018-08-28T00:51:57.616Z,13.40
2018-08-28T00:54:25.797Z,13.30
2018-08-28T00:56:53.966Z,13.30
2018-08-28T00:59:22.188Z,13.20
2018-08-28T01:01:50.388Z,13.20
2018-08-28T01:04:18.560Z,13.20
2018-08-28T01:06:46.762Z,13.20
2018-08-28T01:09:14.944Z,13.20
2018-08-28T01:11:43.107Z,13.20
2018-08-28T01:14:11.278Z,13.20
2018-08-28T01:16:39.484Z,13.10
2018-08-28T01:19:07.717Z,13.00
2018-08-28T01:21:35.931Z,13.00
2018-08-28T01:24:07.813Z,12.90
2018-08-28T01:26:35.977Z,12.90
2018-08-28T01:29:04.131Z,12.90
2018-08-28T01:31:32.324Z,12.90
2018-08-28T01:34:01.482Z,12.90
2018-08-28T01:36:29.643Z,12.90
2018-08-28T01:38:57.787Z,12.90
2018-08-28T01:41:25.956Z,12.90
2018-08-28T01:43:54.103Z,12.90
2018-08-28T01:46:22.307Z,12.90
2018-08-28T01:48:50.482Z,12.90
2018-08-28T01:51:18.665Z,13.00
2018-08-28T01:53:46.861Z,13.00
2018-08-28T01:56:15.039Z,13.00
2018-08-28T01:58:43.249Z,13.00
2018-08-28T02:01:11.431Z,13.00
2018-08-28T02:03:39.624Z,13.00
2018-08-28T02:06:07.795Z,13.00
2018-08-28T02:08:37.120Z,13.00
2018-08-28T02:11:05.312Z,13.10
2018-08-28T02:13:33.485Z,13.00
2018-08-28T02:16:01.870Z,13.00
2018-08-28T02:18:30.067Z,13.00
2018-08-28T02:20:58.235Z,13.00
2018-08-28T02:23:26.415Z,13.00
2018-08-28T02:25:54.645Z,13.00
2018-08-28T02:28:22.956Z,12.90
2018-08-28T02:30:51.264Z,12.90
2018-08-28T02:33:19.510Z,12.90
2018-08-28T02:35:47.707Z,13.00
2018-08-28T02:38:15.936Z,12.90
2018-08-28T02:40:44.495Z,13.00
2018-08-28T02:43:12.711Z,12.90
2018-08-28T02:45:41.048Z,12.90
2018-08-28T02:48:09.277Z,12.90
2018-08-28T02:50:38.021Z,12.90
2018-08-28T02:53:06.227Z,12.90
2018-08-28T02:55:34.488Z,12.90
2018-08-28T02:58:02.689Z,12.90
2018-08-28T03:00:30.893Z,12.90
2018-08-28T03:02:59.215Z,12.90
2018-08-28T03:05:27.324Z,12.90
2018-08-28T03:07:55.525Z,12.90
2018-08-28T03:10:23.697Z,12.80
2018-08-28T03:12:51.893Z,12.80
2018-08-28T03:15:20.114Z,12.70
2018-08-28T03:17:48.301Z,12.70
2018-08-28T03:20:16.540Z,12.70
2018-08-28T03:22:44.716Z,12.70
2018-08-28T03:25:12.928Z,12.50
2018-08-28T03:27:41.156Z,12.40
2018-08-28T03:30:09.354Z,12.40
2018-08-28T03:32:37.601Z,12.50
2018-08-28T03:35:05.925Z,12.50
2018-08-28T03:37:34.098Z,12.50
2018-08-28T03:40:02.353Z,12.50
2018-08-28T03:42:30.523Z,12.50
2018-08-28T03:44:58.745Z,12.40
2018-08-28T03:47:26.918Z,12.40
2018-08-28T03:49:55.363Z,12.40
2018-08-28T03:52:23.560Z,12.30
2018-08-28T03:54:51.736Z,12.30
2018-08-28T03:57:19.915Z,12.30
2018-08-28T03:59:51.501Z,12.30
2018-08-28T04:02:19.815Z,12.30
2018-08-28T04:04:48.019Z,12.30
2018-08-28T04:07:16.175Z,12.30
2018-08-28T04:09:44.357Z,12.30
2018-08-28T04:12:12.575Z,12.30
2018-08-28T04:14:40.760Z,12.30
2018-08-28T04:17:09.026Z,12.30
2018-08-28T04:19:37.136Z,12.30
2018-08-28T04:22:05.320Z,12.30
2018-08-28T04:24:35.537Z,12.30
2018-08-28T04:27:03.721Z,12.30
2018-08-28T04:29:35.336Z,12.30
2018-08-28T04:32:03.543Z,12.20
2018-08-28T04:34:31.731Z,12.10
2018-08-28T04:36:59.933Z,12.10
2018-08-28T04:39:28.120Z,12.10
2018-08-28T04:41:56.409Z,12.10
2018-08-28T04:44:24.551Z,12.20
2018-08-28T04:46:52.748Z,12.20
2018-08-28T04:49:20.948Z,12.10
2018-08-28T04:51:49.124Z,12.10
2018-08-28T04:54:17.429Z,12.10
2018-08-28T04:56:46.824Z,11.90
2018-08-28T04:59:15.066Z,11.90
2018-08-28T05:01:43.240Z,11.90
2018-08-28T05:04:11.443Z,11.90
2018-08-28T05:06:39.658Z,11.90
2018-08-28T05:09:07.860Z,11.90
2018-08-28T05:11:36.172Z,11.80
2018-08-28T05:14:04.415Z,11.90
2018-08-28T05:16:32.829Z,11.90
2018-08-28T05:19:01.060Z,11.90
2018-08-28T05:21:29.289Z,11.90
2018-08-28T05:23:57.507Z,12.00
2018-08-28T05:26:25.713Z,12.00
2018-08-28T05:28:53.994Z,12.10
2018-08-28T05:31:22.231Z,12.10
2018-08-28T05:33:50.462Z,12.20
2018-08-28T05:36:18.703Z,12.20
2018-08-28T05:38:46.972Z,12.20
2018-08-28T05:41:15.155Z,12.20
2018-08-28T05:43:43.413Z,12.10
2018-08-28T05:46:11.591Z,12.10
2018-08-28T05:48:40.003Z,12.00
2018-08-28T05:51:08.148Z,12.00
2018-08-28T05:53:36.433Z,12.10
2018-08-28T05:56:04.634Z,12.10
2018-08-28T05:58:32.800Z,12.10
2018-08-28T06:01:00.975Z,12.10
2018-08-28T06:03:29.368Z,12.20
2018-08-28T06:05:57.494Z,12.20
2018-08-28T06:08:25.719Z,12.20
2018-08-28T06:10:54.008Z,12.10
2018-08-28T06:13:22.199Z,12.20
2018-08-28T06:15:50.428Z,12.20
2018-08-28T06:18:18.644Z,12.20
2018-08-28T06:20:46.862Z,12.30
2018-08-28T06:23:15.895Z,12.30
2018-08-28T06:25:44.181Z,12.40
2018-08-28T06:28:12.389Z,12.40
2018-08-28T06:30:40.617Z,12.50
2018-08-28T06:33:08.875Z,12.50
2018-08-28T06:35:37.374Z,12.50
2018-08-28T06:38:05.526Z,12.50
2018-08-28T06:40:33.768Z,12.50
2018-08-28T06:43:02.058Z,12.50
2018-08-28T06:45:30.273Z,12.50
2018-08-28T06:47:58.523Z,12.50
2018-08-28T06:50:26.750Z,12.50
2018-08-28T06:52:54.945Z,12.70
2018-08-28T06:55:23.190Z,12.70
2018-08-28T06:57:51.429Z,12.80
2018-08-28T07:00:19.642Z,12.80
2018-08-28T07:02:47.872Z,12.90
2018-08-28T07:05:16.118Z,12.90
2018-08-28T07:07:44.336Z,12.90
2018-08-28T07:10:12.651Z,13.00
2018-08-28T07:12:40.802Z,13.00
2018-08-28T07:15:09.088Z,13.10
2018-08-28T07:17:37.323Z,13.20
2018-08-28T07:20:05.847Z,13.20
2018-08-28T07:22:34.122Z,13.10
2018-08-28T07:25:02.400Z,13.00
2018-08-28T07:27:30.629Z,13.20
2018-08-28T07:29:58.887Z,13.10
2018-08-28T07:32:27.086Z,13.30
2018-08-28T07:34:55.301Z,13.40
2018-08-28T07:37:23.547Z,13.50
2018-08-28T07:39:51.794Z,13.70
2018-08-28T07:42:20.021Z,13.80
2018-08-28T07:44:48.272Z,13.80
2018-08-28T07:47:16.514Z,13.80
2018-08-28T07:49:44.771Z,13.50
2018-08-28T07:52:13.052Z,13.30
2018-08-28T07:54:41.560Z,13.50
2018-08-28T07:57:09.978Z,13.70
2018-08-28T07:59:38.277Z,13.80
2018-08-28T08:02:06.786Z,13.90
2018-08-28T08:04:35.448Z,13.90
2018-08-28T08:07:03.829Z,14.00
2018-08-28T08:09:32.050Z,13.80
2018-08-28T08:12:00.306Z,13.90
2018-08-28T08:14:28.598Z,14.30
2018-08-28T08:16:57.466Z,14.00
2018-08-28T08:19:49.753Z,13.80
2018-08-28T08:22:18.110Z,14.20
2018-08-28T08:24:46.401Z,14.30
2018-08-28T08:27:14.874Z,14.70
2018-08-28T08:29:43.091Z,15.00
2018-08-28T08:32:11.369Z,15.10
2018-08-28T08:34:39.624Z,15.40
2018-08-28T08:37:07.896Z,15.50
2018-08-28T08:39:36.089Z,15.80
2018-08-28T08:42:04.545Z,15.70
2018-08-28T08:44:33.007Z,15.80
2018-08-28T08:47:01.318Z,15.90
2018-08-28T08:49:29.592Z,15.80
2018-08-28T08:51:58.053Z,15.90
2018-08-28T08:54:26.358Z,16.00
2018-08-28T08:56:54.641Z,16.10
2018-08-28T08:59:23.240Z,16.30
2018-08-28T09:01:51.601Z,16.50
2018-08-28T09:04:19.956Z,16.50
2018-08-28T09:06:50.867Z,16.60
2018-08-28T09:09:20.908Z,16.70
2018-08-28T09:11:50.631Z,16.70
2018-08-28T09:14:22.687Z,17.00
2018-08-28T09:16:52.158Z,17.30
2018-08-28T09:19:20.839Z,17.60
2018-08-28T09:21:49.269Z,18.50
2018-08-28T09:24:17.872Z,19.10
2018-08-28T09:26:50.361Z,19.50
2018-08-28T09:29:19.285Z,20.00
2018-08-28T09:31:47.974Z,19.20
2018-08-28T09:34:16.381Z,19.60
2018-08-28T09:36:44.763Z,20.30
2018-08-28T09:39:13.056Z,20.80
2018-08-28T09:41:41.633Z,20.60
2018-08-28T09:44:10.793Z,19.80
2018-08-28T09:46:39.170Z,19.50
2018-08-28T09:49:07.474Z,19.60
2018-08-28T09:51:35.838Z,20.10
2018-08-28T09:54:04.329Z,20.90
2018-08-28T09:56:32.681Z,21.20
2018-08-28T09:59:01.100Z,21.30
2018-08-28T10:04:24.957Z,21.20
2018-08-28T10:06:53.156Z,21.30
2018-08-28T10:09:21.395Z,21.60
2018-08-28T10:11:49.662Z,21.70
2018-08-28T10:14:17.881Z,22.00
2018-08-28T10:16:46.294Z,22.10
2018-08-28T10:19:14.740Z,22.40
2018-08-28T10:21:43.500Z,22.10
2018-08-28T10:24:12.555Z,22.20
2018-08-28T10:26:40.814Z,22.30
2018-08-28T10:29:09.256Z,22.40
2018-08-28T10:31:37.766Z,22.50
2018-08-28T10:34:15.786Z,22.40
2018-08-28T10:36:44.819Z,22.20
2018-08-28T10:39:15.173Z,22.30
2018-08-28T10:41:43.648Z,21.30
2018-08-28T10:44:13.530Z,21.50
2018-08-28T10:46:42.764Z,21.50
2018-08-28T10:49:11.971Z,21.80
2018-08-28T10:51:41.514Z,22.10
2018-08-28T10:54:09.817Z,22.60
2018-08-28T10:56:38.041Z,22.90
2018-08-28T10:59:06.310Z,22.80
2018-08-28T11:01:34.697Z,23.20
2018-08-28T11:04:03.184Z,23.30
2018-08-28T11:06:31.499Z,23.20
2018-08-28T11:09:00.759Z,23.10
2018-08-28T11:11:32.212Z,22.80
2018-08-28T11:14:00.434Z,22.80
2018-08-28T11:16:28.707Z,22.70
2018-08-28T11:18:56.963Z,22.50
2018-08-28T11:21:25.137Z,22.40
2018-08-28T11:23:53.341Z,22.80
2018-08-28T11:26:21.520Z,23.00
2018-08-28T11:28:49.856Z,22.80
2018-08-28T11:31:18.320Z,22.50
2018-08-28T11:33:47.113Z,22.70
2018-08-28T11:36:15.767Z,22.90
2018-08-28T11:38:44.421Z,22.80
2018-08-28T11:41:31.410Z,22.80
2018-08-28T11:43:59.661Z,22.60
2018-08-28T11:46:29.401Z,22.50
2018-08-28T11:48:59.437Z,22.50
2018-08-28T11:51:29.331Z,22.50
2018-08-28T11:53:57.773Z,22.40
2018-08-28T11:56:29.035Z,22.60
2018-08-28T11:58:57.308Z,22.80
2018-08-28T12:01:25.793Z,22.90
2018-08-28T12:03:54.610Z,22.70
2018-08-28T12:06:23.354Z,22.60
2018-08-28T12:08:51.717Z,22.50
2018-08-28T12:11:20.167Z,22.30
2018-08-28T12:13:48.399Z,22.00
2018-08-28T12:16:16.663Z,22.00
2018-08-28T12:18:44.926Z,22.20
2018-08-28T12:21:13.137Z,22.30
2018-08-28T12:23:41.427Z,22.50
2018-08-28T12:26:09.972Z,22.60
2018-08-28T12:28:38.571Z,22.40
2018-08-28T12:31:07.158Z,22.50
2018-08-28T12:33:35.730Z,22.70
2018-08-28T12:36:07.257Z,22.70
2018-08-28T12:38:36.906Z,22.80
2018-08-28T12:41:06.224Z,22.80
2018-08-28T12:43:34.746Z,22.80
2018-08-28T12:46:04.591Z,22.90
2018-08-28T12:48:34.102Z,23.20
2018-08-28T12:51:12.447Z,23.40
2018-08-28T12:53:41.672Z,23.50
2018-08-28T12:56:10.492Z,23.50
2018-08-28T12:58:40.700Z,23.50
2018-08-28T13:01:09.775Z,23.50
2018-08-28T13:03:46.568Z,23.60
2018-08-28T13:06:15.055Z,23.40
2018-08-28T13:08:44.369Z,23.20
2018-08-28T13:11:13.704Z,23.20
2018-08-28T13:13:43.246Z,23.20
2018-08-28T13:16:13.981Z,23.10
2018-08-28T13:18:43.320Z,23.20
2018-08-28T13:21:13.890Z,23.30
2018-08-28T13:23:42.580Z,23.20
2018-08-28T13:26:12.362Z,23.20
2018-08-28T13:28:43.184Z,23.30
2018-08-28T13:31:12.282Z,23.40
2018-08-28T13:33:41.601Z,23.40
2018-08-28T13:36:10.416Z,23.30
2018-08-28T13:38:40.252Z,23.50
2018-08-28T13:41:08.456Z,23.70
2018-08-28T13:43:36.937Z,23.90
2018-08-28T13:46:05.206Z,24.00
2018-08-28T13:48:33.896Z,23.90
2018-08-28T13:51:02.515Z,23.70
2018-08-28T13:53:31.366Z,23.70
2018-08-28T13:55:59.682Z,23.70
2018-08-28T13:58:28.019Z,23.70
2018-08-28T14:00:56.283Z,23.90
2018-08-28T14:03:24.575Z,23.90
2018-08-28T14:05:52.820Z,23.80
2018-08-28T14:08:21.209Z,24.00
2018-08-28T14:10:49.438Z,24.20
2018-08-28T14:13:17.873Z,24.30
2018-08-28T14:15:46.288Z,24.40
2018-08-28T14:18:14.757Z,24.40
2018-08-28T14:20:44.066Z,24.40
2018-08-28T14:23:12.792Z,24.30
2018-08-28T14:25:43.604Z,24.40
2018-08-28T14:28:12.888Z,24.30
2018-08-28T14:30:42.858Z,24.10
2018-08-28T14:33:12.634Z,24.00
2018-08-28T14:35:43.679Z,24.00
2018-08-28T14:38:12.790Z,24.00
2018-08-28T14:40:43.320Z,24.00
2018-08-28T14:43:12.125Z,24.00
2018-08-28T14:45:41.662Z,24.00
2018-08-28T14:48:11.139Z,24.10
2018-08-28T14:50:41.252Z,24.20
2018-08-28T14:53:11.246Z,24.20
2018-08-28T14:55:40.650Z,24.20
2018-08-28T14:58:09.830Z,24.20
2018-08-28T15:00:38.079Z,24.30
2018-08-28T15:03:06.561Z,24.30
2018-08-28T15:05:34.860Z,24.30
2018-08-28T15:08:03.165Z,24.20
2018-08-28T15:10:31.449Z,24.00
2018-08-28T15:12:59.819Z,23.90
2018-08-28T15:15:28.230Z,23.90
2018-08-28T15:17:56.420Z,23.90
2018-08-28T15:20:24.736Z,23.90
2018-08-28T15:22:53.021Z,23.90
2018-08-28T15:25:21.287Z,23.90
2018-08-28T15:27:49.482Z,23.90
2018-08-28T15:30:17.745Z,23.80
2018-08-28T15:32:46.121Z,23.90
2018-08-28T15:35:14.491Z,23.90
2018-08-28T15:37:43.256Z,24.00
2018-08-28T15:40:11.887Z,24.10
2018-08-28T15:42:41.832Z,24.10
2018-08-28T15:45:11.538Z,24.00
2018-08-28T15:47:42.411Z,24.10
2018-08-28T15:50:12.692Z,24.10
2018-08-28T15:52:42.440Z,24.00
2018-08-28T15:55:13.211Z,24.00
2018-08-28T15:57:41.603Z,24.00
2018-08-28T16:00:11.592Z,24.00
2018-08-28T16:02:42.327Z,24.10
2018-08-28T16:05:11.940Z,24.30
2018-08-28T16:07:41.494Z,24.40
2018-08-28T16:10:10.539Z,24.50
2018-08-28T16:12:39.689Z,24.30
2018-08-28T16:15:07.937Z,24.40
2018-08-28T16:17:36.228Z,24.50
2018-08-28T16:20:04.537Z,24.60
2018-08-28T16:22:40.007Z,24.60
2018-08-28T16:25:09.157Z,24.50
2018-08-28T16:27:37.356Z,24.40
2018-08-28T16:30:05.672Z,24.30
2018-08-28T16:32:34.018Z,24.30
2018-08-28T16:35:02.286Z,24.40
2018-08-28T16:37:30.499Z,24.50
2018-08-28T16:39:58.929Z,24.70
2018-08-28T16:42:27.193Z,24.80
2018-08-28T16:44:55.490Z,25.20
2018-08-28T16:47:23.822Z,25.00
2018-08-28T16:49:52.000Z,24.80
2018-08-28T16:52:20.352Z,24.70
2018-08-28T16:54:48.549Z,24.80
2018-08-28T16:57:17.123Z,24.90
2018-08-28T16:59:45.669Z,25.00
2018-08-28T17:02:13.981Z,25.30
2018-08-28T17:04:43.033Z,25.50
2018-08-28T17:07:11.847Z,25.40
2018-08-28T17:09:41.963Z,25.30
2018-08-28T17:12:11.378Z,25.00
2018-08-28T17:14:40.722Z,24.70
2018-08-28T17:17:09.455Z,24.50
2018-08-28T17:19:37.685Z,24.20
2018-08-28T17:22:06.058Z,24.00
2018-08-28T17:24:34.323Z,23.90
2018-08-28T17:27:02.618Z,23.80
2018-08-28T17:29:31.936Z,23.60
2018-08-28T17:32:00.345Z,23.50
2018-08-28T17:34:28.669Z,23.40
2018-08-28T17:36:57.120Z,23.40
2018-08-28T17:39:25.456Z,23.20
2018-08-28T17:41:53.681Z,23.10
2018-08-28T17:44:21.852Z,23.00
2018-08-28T17:46:50.093Z,22.90
2018-08-28T17:49:18.345Z,22.70
2018-08-28T17:51:47.036Z,22.50
2018-08-28T17:54:15.459Z,22.40
2018-08-28T17:56:43.859Z,22.20
2018-08-28T17:59:12.261Z,22.00
2018-08-28T18:01:42.211Z,21.90
2018-08-28T18:04:10.854Z,21.70
2018-08-28T18:06:40.705Z,21.50
2018-08-28T18:09:10.459Z,21.30
2018-08-28T18:11:39.668Z,21.20
2018-08-28T18:14:07.864Z,21.00
2018-08-28T18:16:36.327Z,20.90
2018-08-28T18:19:04.412Z,20.70
2018-08-28T18:21:32.632Z,20.50
2018-08-28T18:24:01.183Z,20.30
2018-08-28T18:26:29.979Z,20.10
2018-08-28T18:28:58.419Z,19.90
2018-08-28T18:31:26.916Z,19.80
2018-08-28T18:33:55.311Z,19.70
2018-08-28T18:36:23.581Z,19.50
2018-08-28T18:38:51.931Z,19.30
2018-08-28T18:41:20.205Z,19.20
2018-08-28T18:43:48.411Z,19.10
2018-08-28T18:46:16.722Z,19.00
2018-08-28T18:48:45.151Z,18.90
2018-08-28T18:51:13.571Z,18.70
2018-08-28T18:53:42.092Z,18.70
2018-08-28T18:56:10.917Z,18.60
2018-08-28T18:58:40.220Z,18.60
2018-08-28T19:01:08.796Z,18.50
2018-08-28T19:03:37.062Z,18.40
2018-08-28T19:06:05.326Z,18.40
2018-08-28T19:08:33.650Z,18.20
2018-08-28T19:11:02.002Z,18.20
2018-08-28T19:13:31.016Z,18.10
2018-08-28T19:15:59.297Z,18.00
2018-08-28T19:18:27.543Z,17.90
2018-08-28T19:20:55.815Z,17.70
2018-08-28T19:23:24.047Z,17.60
2018-08-28T19:25:52.423Z,17.80
2018-08-28T19:28:20.688Z,17.80
2018-08-28T19:30:48.906Z,17.70
2018-08-28T19:33:17.289Z,17.60
2018-08-28T19:35:45.701Z,17.60
2018-08-28T19:38:14.252Z,17.50
2018-08-28T19:40:42.676Z,17.50
2018-08-28T19:43:12.816Z,17.40
2018-08-28T19:45:42.197Z,17.30
2018-08-28T19:48:11.362Z,17.20
2018-08-28T19:50:41.884Z,17.10
2018-08-28T19:53:11.738Z,17.00
2018-08-28T19:55:43.419Z,16.80
2018-08-28T19:58:12.583Z,16.80
2018-08-28T20:00:42.019Z,16.60
2018-08-28T20:03:10.762Z,16.50
2018-08-28T20:05:39.788Z,16.50
2018-08-28T20:08:07.965Z,16.40
2018-08-28T20:10:36.155Z,16.30
2018-08-28T20:13:04.412Z,16.20
2018-08-28T20:15:32.759Z,16.10
2018-08-28T20:18:01.213Z,16.10
2018-08-28T20:20:29.616Z,16.00
2018-08-28T20:22:58.000Z,15.90
2018-08-28T20:25:26.338Z,15.80
2018-08-28T20:27:54.574Z,15.80
2018-08-28T20:30:22.819Z,15.70
2018-08-28T20:32:51.088Z,15.70
2018-08-28T20:35:19.304Z,15.60
2018-08-28T20:38:00.469Z,15.60
2018-08-28T20:40:29.397Z,15.50
2018-08-28T20:42:57.740Z,15.40
2018-08-28T20:45:26.007Z,15.30
2018-08-28T20:47:54.369Z,15.30
2018-08-28T20:50:22.694Z,15.30
2018-08-28T20:52:50.990Z,15.20
2018-08-28T20:55:19.276Z,15.20
2018-08-28T20:57:47.607Z,15.10
2018-08-28T21:00:16.061Z,15.00
2018-08-28T21:02:44.453Z,15.00
2018-08-28T21:05:13.037Z,15.00
2018-08-28T21:07:41.653Z,14.90
2018-08-28T21:10:11.128Z,14.90
2018-08-28T21:12:39.951Z,14.80
2018-08-28T21:15:12.209Z,14.80
2018-08-28T21:17:41.913Z,14.70
2018-08-28T21:20:11.510Z,14.70
2018-08-28T21:22:41.224Z,14.70
2018-08-28T21:25:10.438Z,14.60
2018-08-28T21:27:39.613Z,14.60
2018-08-28T21:30:07.916Z,14.60
2018-08-28T21:32:36.838Z,14.50
2018-08-28T21:35:05.392Z,14.50
2018-08-28T21:37:33.771Z,14.40
2018-08-28T21:40:02.175Z,14.40
2018-08-28T21:42:30.514Z,14.40
2018-08-28T21:44:58.749Z,14.40
2018-08-28T21:47:27.038Z,14.40
2018-08-28T21:49:55.381Z,14.30
2018-08-28T21:52:23.755Z,14.30
2018-08-28T21:54:52.184Z,14.20
2018-08-28T21:57:20.813Z,14.20
2018-08-28T21:59:54.737Z,14.10
2018-08-28T22:02:24.313Z,14.00
2018-08-28T22:04:52.659Z,14.00
2018-08-28T22:07:26.312Z,13.90
2018-08-28T22:09:54.623Z,13.90
2018-08-28T22:12:22.887Z,13.90
2018-08-28T22:14:51.155Z,13.80
2018-08-28T22:17:19.436Z,13.80
2018-08-28T22:19:47.703Z,13.80
2018-08-28T22:22:15.953Z,13.70
2018-08-28T22:24:44.193Z,13.70
2018-08-28T22:27:12.408Z,13.70
2018-08-28T22:29:40.770Z,13.60
2018-08-28T22:32:09.005Z,13.60
2018-08-28T22:34:37.363Z,13.60
2018-08-28T22:37:05.870Z,13.60
2018-08-28T22:39:34.328Z,13.50
2018-08-28T22:42:02.591Z,13.50
2018-08-28T22:44:30.939Z,13.50
2018-08-28T22:46:59.211Z,13.50
2018-08-28T22:49:27.476Z,13.40
2018-08-28T22:51:55.735Z,13.40
2018-08-28T22:54:23.987Z,13.40
2018-08-28T22:56:52.274Z,13.30
2018-08-28T22:59:20.544Z,13.30
2018-08-28T23:01:48.851Z,13.30
2018-08-28T23:04:17.192Z,13.30
2018-08-28T23:06:45.391Z,13.20
2018-08-28T23:09:13.683Z,13.20
2018-08-28T23:11:41.953Z,13.20
2018-08-28T23:14:10.268Z,13.10
2018-08-28T23:16:38.532Z,13.20
2018-08-28T23:19:06.907Z,13.00
2018-08-28T23:21:35.173Z,13.00
2018-08-28T23:24:03.504Z,13.00
2018-08-28T23:26:31.732Z,13.00
2018-08-28T23:29:00.004Z,13.00
2018-08-28T23:31:28.285Z,12.90
2018-08-28T23:33:56.642Z,12.90
2018-08-28T23:36:24.901Z,12.90
2018-08-28T23:38:53.223Z,12.80
2018-08-28T23:41:21.482Z,12.80
2018-08-28T23:43:49.771Z,12.80
2018-08-28T23:46:18.046Z,12.70
2018-08-28T23:48:46.313Z,12.70
2018-08-28T23:51:14.590Z,12.70
2018-08-28T23:53:42.860Z,12.60
2018-08-28T23:56:11.184Z,12.70
2018-08-28T23:58:39.540Z,12.60
